sensor_id;sensor_type;location;lat;lon;timestamp;pressure;altitude;pressure_sealevel;temperature;humidity
64388;BME280;50709;52.648;4.764;2024-03-07T00:00:34;102778.78;;;10.37;72.15
64388;BME280;50709;52.648;4.764;2024-03-07T00:03:20;102768.56;;;10.71;72.82
64388;BME280;50709;52.648;4.764;2024-03-07T00:05:46;102748.94;;;10.56;73.01
64388;BME280;50709;52.648;4.764;2024-03-07T00:08:31;102767.50;;;10.93;72.06
64388;BME280;50709;52.648;4.764;2024-03-07T00:10:56;102767.50;;;10.93;71.52
64388;BME280;50709;52.648;4.764;2024-03-07T00:13:22;102767.63;;;10.96;71.05
64388;BME280;50709;52.648;4.764;2024-03-07T00:15:47;102764.59;;;11.11;71.86
64388;BME280;50709;52.648;4.764;2024-03-07T00:18:13;102778.44;;;11.07;70.85
64388;BME280;50709;52.648;4.764;2024-03-07T00:20:40;102783.94;;;10.89;71.43
64388;BME280;50709;52.648;4.764;2024-03-07T00:23:05;102772.19;;;10.74;70.83
64388;BME280;50709;52.648;4.764;2024-03-07T00:25:31;102791.16;;;10.96;71.27
64388;BME280;50709;52.648;4.764;2024-03-07T00:27:57;102799.41;;;10.81;71.17
64388;BME280;50709;52.648;4.764;2024-03-07T00:30:28;102779.47;;;10.85;71.78
64388;BME280;50709;52.648;4.764;2024-03-07T00:33:13;102733.91;;;10.49;72.20
64388;BME280;50709;52.648;4.764;2024-03-07T00:35:39;102781.50;;;10.66;71.57
64388;BME280;50709;52.648;4.764;2024-03-07T00:38:06;102767.44;;;10.63;71.52
64388;BME280;50709;52.648;4.764;2024-03-07T00:40:32;102795.44;;;10.67;71.66
64388;BME280;50709;52.648;4.764;2024-03-07T00:42:59;102785.00;;;10.67;71.02
64388;BME280;50709;52.648;4.764;2024-03-07T00:45:27;102794.88;;;10.25;71.43
64388;BME280;50709;52.648;4.764;2024-03-07T00:47:53;102786.09;;;10.73;72.43
64388;BME280;50709;52.648;4.764;2024-03-07T00:50:18;102791.09;;;10.67;71.49
64388;BME280;50709;52.648;4.764;2024-03-07T00:52:43;102776.00;;;10.86;71.86
64388;BME280;50709;52.648;4.764;2024-03-07T00:55:09;102787.91;;;11.03;71.14
64388;BME280;50709;52.648;4.764;2024-03-07T00:57:34;102723.59;;;10.28;71.19
64388;BME280;50709;52.648;4.764;2024-03-07T01:00:00;102784.13;;;10.66;71.06
64388;BME280;50709;52.648;4.764;2024-03-07T01:02:29;102782.69;;;10.76;72.12
64388;BME280;50709;52.648;4.764;2024-03-07T01:04:55;102774.50;;;10.39;71.31
64388;BME280;50709;52.648;4.764;2024-03-07T01:07:21;102770.94;;;10.37;70.06
64388;BME280;50709;52.648;4.764;2024-03-07T01:09:49;102779.09;;;10.47;71.95
64388;BME280;50709;52.648;4.764;2024-03-07T01:12:15;102784.56;;;10.80;72.36
64388;BME280;50709;52.648;4.764;2024-03-07T01:14:42;102786.28;;;10.54;69.95
64388;BME280;50709;52.648;4.764;2024-03-07T01:17:07;102782.50;;;10.20;71.41
64388;BME280;50709;52.648;4.764;2024-03-07T01:19:34;102778.59;;;10.57;71.56
64388;BME280;50709;52.648;4.764;2024-03-07T01:22:00;102766.88;;;10.46;72.26
64388;BME280;50709;52.648;4.764;2024-03-07T01:24:25;102770.56;;;10.52;72.54
64388;BME280;50709;52.648;4.764;2024-03-07T01:26:51;102781.03;;;10.80;72.15
64388;BME280;50709;52.648;4.764;2024-03-07T01:29:17;102770.97;;;10.65;71.23
64388;BME280;50709;52.648;4.764;2024-03-07T01:31:43;102760.06;;;10.51;71.83
64388;BME280;50709;52.648;4.764;2024-03-07T01:34:09;102775.53;;;10.70;72.26
64388;BME280;50709;52.648;4.764;2024-03-07T01:36:34;102765.75;;;10.65;71.78
64388;BME280;50709;52.648;4.764;2024-03-07T01:39:00;102775.91;;;10.55;71.37
64388;BME280;50709;52.648;4.764;2024-03-07T01:41:26;102773.03;;;10.48;71.80
64388;BME280;50709;52.648;4.764;2024-03-07T01:43:52;102763.78;;;10.57;72.25
64388;BME280;50709;52.648;4.764;2024-03-07T01:46:18;102771.75;;;10.62;71.34
64388;BME280;50709;52.648;4.764;2024-03-07T01:48:46;102734.59;;;10.43;72.39
64388;BME280;50709;52.648;4.764;2024-03-07T01:51:36;102763.44;;;10.74;71.88
64388;BME280;50709;52.648;4.764;2024-03-07T01:54:05;102758.72;;;10.36;71.04
64388;BME280;50709;52.648;4.764;2024-03-07T01:56:53;102764.66;;;10.58;72.55
64388;BME280;50709;52.648;4.764;2024-03-07T01:59:39;102769.59;;;10.49;71.73
64388;BME280;50709;52.648;4.764;2024-03-07T02:02:05;102761.44;;;10.65;72.14
64388;BME280;50709;52.648;4.764;2024-03-07T02:04:30;102757.03;;;10.64;72.19
64388;BME280;50709;52.648;4.764;2024-03-07T02:06:56;102759.41;;;10.84;71.71
64388;BME280;50709;52.648;4.764;2024-03-07T02:09:22;102757.41;;;10.76;71.62
64388;BME280;50709;52.648;4.764;2024-03-07T02:11:48;102730.16;;;10.68;70.92
64388;BME280;50709;52.648;4.764;2024-03-07T02:14:14;102755.97;;;10.86;71.67
64388;BME280;50709;52.648;4.764;2024-03-07T02:16:40;102742.66;;;10.77;72.20
64388;BME280;50709;52.648;4.764;2024-03-07T02:19:07;102746.31;;;10.56;71.04
64388;BME280;50709;52.648;4.764;2024-03-07T02:21:38;102752.97;;;10.47;71.21
64388;BME280;50709;52.648;4.764;2024-03-07T02:24:04;102748.25;;;10.62;72.13
64388;BME280;50709;52.648;4.764;2024-03-07T02:26:30;102751.34;;;10.24;72.18
64388;BME280;50709;52.648;4.764;2024-03-07T02:28:56;102753.50;;;10.36;72.06
64388;BME280;50709;52.648;4.764;2024-03-07T02:31:23;102749.06;;;10.59;72.45
64388;BME280;50709;52.648;4.764;2024-03-07T02:34:01;102747.91;;;10.27;71.95
64388;BME280;50709;52.648;4.764;2024-03-07T02:36:27;102746.41;;;10.34;72.19
64388;BME280;50709;52.648;4.764;2024-03-07T02:38:54;102736.16;;;10.38;73.36
64388;BME280;50709;52.648;4.764;2024-03-07T02:41:39;102709.97;;;10.11;72.09
64388;BME280;50709;52.648;4.764;2024-03-07T02:44:05;102728.75;;;10.26;72.33
64388;BME280;50709;52.648;4.764;2024-03-07T02:46:30;102736.66;;;10.28;72.97
64388;BME280;50709;52.648;4.764;2024-03-07T02:48:57;102728.97;;;10.33;72.50
64388;BME280;50709;52.648;4.764;2024-03-07T02:51:23;102728.16;;;9.84;72.59
64388;BME280;50709;52.648;4.764;2024-03-07T02:53:49;102727.63;;;10.18;72.84
64388;BME280;50709;52.648;4.764;2024-03-07T02:56:15;102721.53;;;10.18;72.56
64388;BME280;50709;52.648;4.764;2024-03-07T02:58:40;102725.66;;;10.37;73.46
64388;BME280;50709;52.648;4.764;2024-03-07T03:01:06;102719.09;;;10.24;72.70
64388;BME280;50709;52.648;4.764;2024-03-07T03:03:33;102717.50;;;10.27;73.43
64388;BME280;50709;52.648;4.764;2024-03-07T03:06:19;102706.72;;;10.18;72.56
64388;BME280;50709;52.648;4.764;2024-03-07T03:08:46;102728.56;;;9.70;72.99
64388;BME280;50709;52.648;4.764;2024-03-07T03:11:13;102714.06;;;10.03;72.43
64388;BME280;50709;52.648;4.764;2024-03-07T03:13:40;102714.09;;;10.30;72.71
64388;BME280;50709;52.648;4.764;2024-03-07T03:16:25;102710.75;;;10.08;72.77
64388;BME280;50709;52.648;4.764;2024-03-07T03:18:52;102714.41;;;10.38;73.54
64388;BME280;50709;52.648;4.764;2024-03-07T03:21:18;102698.03;;;10.18;72.29
64388;BME280;50709;52.648;4.764;2024-03-07T03:24:03;102720.94;;;10.26;72.59
64388;BME280;50709;52.648;4.764;2024-03-07T03:26:34;102716.09;;;10.37;72.28
64388;BME280;50709;52.648;4.764;2024-03-07T03:29:01;102707.56;;;10.43;72.78
64388;BME280;50709;52.648;4.764;2024-03-07T03:31:26;102701.41;;;10.15;72.69
64388;BME280;50709;52.648;4.764;2024-03-07T03:33:52;102711.09;;;10.18;72.67
64388;BME280;50709;52.648;4.764;2024-03-07T03:36:38;102706.72;;;9.92;72.39
64388;BME280;50709;52.648;4.764;2024-03-07T03:39:05;102716.19;;;10.15;72.52
64388;BME280;50709;52.648;4.764;2024-03-07T03:41:32;102708.09;;;9.81;73.41
64388;BME280;50709;52.648;4.764;2024-03-07T03:44:00;102708.19;;;10.10;72.65
64388;BME280;50709;52.648;4.764;2024-03-07T03:46:50;102698.75;;;10.14;73.00
64388;BME280;50709;52.648;4.764;2024-03-07T03:49:15;102712.22;;;9.74;72.62
64388;BME280;50709;52.648;4.764;2024-03-07T03:51:43;102701.72;;;9.99;72.72
64388;BME280;50709;52.648;4.764;2024-03-07T03:54:08;102709.13;;;9.86;72.70
64388;BME280;50709;52.648;4.764;2024-03-07T03:56:34;102707.19;;;10.06;73.48
64388;BME280;50709;52.648;4.764;2024-03-07T03:59:00;102698.53;;;9.57;73.14
64388;BME280;50709;52.648;4.764;2024-03-07T04:01:26;102707.03;;;9.76;73.54
64388;BME280;50709;52.648;4.764;2024-03-07T04:04:11;102696.28;;;9.67;73.17
64388;BME280;50709;52.648;4.764;2024-03-07T04:06:42;102704.22;;;9.96;74.33
64388;BME280;50709;52.648;4.764;2024-03-07T04:09:08;102698.44;;;9.79;74.00
64388;BME280;50709;52.648;4.764;2024-03-07T04:11:34;102694.41;;;9.88;73.83
64388;BME280;50709;52.648;4.764;2024-03-07T04:13:59;102693.63;;;9.91;73.31
64388;BME280;50709;52.648;4.764;2024-03-07T04:16:27;102683.28;;;9.68;72.60
64388;BME280;50709;52.648;4.764;2024-03-07T04:18:54;102703.16;;;9.90;73.65
64388;BME280;50709;52.648;4.764;2024-03-07T04:21:20;102687.75;;;9.72;74.15
64388;BME280;50709;52.648;4.764;2024-03-07T04:23:46;102687.78;;;9.98;72.69
64388;BME280;50709;52.648;4.764;2024-03-07T04:26:11;102696.44;;;10.23;72.79
64388;BME280;50709;52.648;4.764;2024-03-07T04:28:40;102698.75;;;10.14;72.49
64388;BME280;50709;52.648;4.764;2024-03-07T04:31:05;102677.84;;;9.88;72.47
64388;BME280;50709;52.648;4.764;2024-03-07T04:33:32;102700.63;;;10.18;73.25
64388;BME280;50709;52.648;4.764;2024-03-07T04:35:57;102698.84;;;10.17;72.47
64388;BME280;50709;52.648;4.764;2024-03-07T04:38:23;102707.41;;;9.87;72.16
64388;BME280;50709;52.648;4.764;2024-03-07T04:40:51;102698.69;;;10.12;72.47
64388;BME280;50709;52.648;4.764;2024-03-07T04:43:19;102691.94;;;10.19;72.45
64388;BME280;50709;52.648;4.764;2024-03-07T04:46:04;102696.88;;;10.09;71.54
64388;BME280;50709;52.648;4.764;2024-03-07T04:48:32;102694.28;;;10.09;72.50
64388;BME280;50709;52.648;4.764;2024-03-07T04:50:58;102692.63;;;10.13;72.04
64388;BME280;50709;52.648;4.764;2024-03-07T04:53:24;102699.84;;;9.70;72.06
64388;BME280;50709;52.648;4.764;2024-03-07T04:56:09;102690.28;;;9.95;72.37
64388;BME280;50709;52.648;4.764;2024-03-07T04:58:58;102688.84;;;10.31;72.65
64388;BME280;50709;52.648;4.764;2024-03-07T05:01:26;102690.25;;;10.19;71.95
64388;BME280;50709;52.648;4.764;2024-03-07T05:03:52;102690.63;;;10.04;71.44
64388;BME280;50709;52.648;4.764;2024-03-07T05:06:20;102685.97;;;10.23;71.97
64388;BME280;50709;52.648;4.764;2024-03-07T05:09:06;102693.28;;;10.06;72.46
64388;BME280;50709;52.648;4.764;2024-03-07T05:11:33;102665.84;;;9.67;72.06
64388;BME280;50709;52.648;4.764;2024-03-07T05:13:59;102685.38;;;9.79;71.66
64388;BME280;50709;52.648;4.764;2024-03-07T05:16:31;102681.44;;;10.43;71.23
64388;BME280;50709;52.648;4.764;2024-03-07T05:19:34;102683.75;;;10.88;70.57
64388;BME280;50709;52.648;4.764;2024-03-07T05:22:02;102687.59;;;11.01;70.02
64388;BME280;50709;52.648;4.764;2024-03-07T05:24:30;102693.28;;;11.17;70.13
64388;BME280;50709;52.648;4.764;2024-03-07T05:26:58;102695.72;;;11.10;69.73
64388;BME280;50709;52.648;4.764;2024-03-07T05:29:24;102689.69;;;11.13;70.35
64388;BME280;50709;52.648;4.764;2024-03-07T05:32:26;102700.91;;;11.71;68.79
64388;BME280;50709;52.648;4.764;2024-03-07T05:34:53;102679.00;;;11.66;67.32
64388;BME280;50709;52.648;4.764;2024-03-07T05:37:19;102688.59;;;11.99;67.15
64388;BME280;50709;52.648;4.764;2024-03-07T05:39:48;102687.72;;;11.67;67.94
64388;BME280;50709;52.648;4.764;2024-03-07T05:42:13;102700.25;;;11.47;66.46
64388;BME280;50709;52.648;4.764;2024-03-07T05:44:43;102690.50;;;12.06;66.71
64388;BME280;50709;52.648;4.764;2024-03-07T05:47:09;102683.84;;;12.18;66.40
64388;BME280;50709;52.648;4.764;2024-03-07T05:49:36;102694.88;;;12.06;66.12
64388;BME280;50709;52.648;4.764;2024-03-07T05:52:05;102696.81;;;11.80;66.75
64388;BME280;50709;52.648;4.764;2024-03-07T05:54:35;102688.25;;;11.87;67.75
64388;BME280;50709;52.648;4.764;2024-03-07T05:57:01;102672.97;;;12.02;66.60
64388;BME280;50709;52.648;4.764;2024-03-07T05:59:27;102693.91;;;12.02;66.17
64388;BME280;50709;52.648;4.764;2024-03-07T06:01:59;102692.28;;;11.75;65.82
64388;BME280;50709;52.648;4.764;2024-03-07T06:04:26;102689.56;;;11.39;66.00
64388;BME280;50709;52.648;4.764;2024-03-07T06:06:52;102689.94;;;11.51;65.10
64388;BME280;50709;52.648;4.764;2024-03-07T06:09:18;102683.59;;;12.08;65.72
64388;BME280;50709;52.648;4.764;2024-03-07T06:11:52;102694.19;;;11.80;66.02
64388;BME280;50709;52.648;4.764;2024-03-07T06:14:17;102698.03;;;11.94;66.01
64388;BME280;50709;52.648;4.764;2024-03-07T06:17:03;102678.72;;;12.24;65.41
64388;BME280;50709;52.648;4.764;2024-03-07T06:19:28;102677.88;;;11.91;65.20
64388;BME280;50709;52.648;4.764;2024-03-07T06:21:56;102680.31;;;11.84;65.96
64388;BME280;50709;52.648;4.764;2024-03-07T06:24:21;102684.81;;;11.56;64.69
64388;BME280;50709;52.648;4.764;2024-03-07T06:26:48;102687.34;;;11.53;66.76
64388;BME280;50709;52.648;4.764;2024-03-07T06:29:25;102637.84;;;10.98;65.91
64388;BME280;50709;52.648;4.764;2024-03-07T06:31:52;102694.84;;;11.72;65.88
64388;BME280;50709;52.648;4.764;2024-03-07T06:34:19;102697.22;;;11.31;64.56
64388;BME280;50709;52.648;4.764;2024-03-07T06:36:45;102704.22;;;11.64;64.36
64388;BME280;50709;52.648;4.764;2024-03-07T06:39:10;102684.63;;;11.82;66.95
64388;BME280;50709;52.648;4.764;2024-03-07T06:41:36;102700.56;;;11.91;65.06
64388;BME280;50709;52.648;4.764;2024-03-07T06:44:02;102691.66;;;12.16;62.54
64388;BME280;50709;52.648;4.764;2024-03-07T06:46:28;102688.38;;;11.93;64.80
64388;BME280;50709;52.648;4.764;2024-03-07T06:48:54;102703.41;;;11.67;64.21
64388;BME280;50709;52.648;4.764;2024-03-07T06:51:21;102702.31;;;11.90;64.88
64388;BME280;50709;52.648;4.764;2024-03-07T06:53:47;102687.19;;;12.12;63.44
64388;BME280;50709;52.648;4.764;2024-03-07T06:56:14;102706.69;;;11.91;64.54
64388;BME280;50709;52.648;4.764;2024-03-07T06:58:40;102700.22;;;11.77;64.75
64388;BME280;50709;52.648;4.764;2024-03-07T07:01:07;102700.34;;;12.15;62.69
64388;BME280;50709;52.648;4.764;2024-03-07T07:03:36;102696.94;;;12.54;63.19
64388;BME280;50709;52.648;4.764;2024-03-07T07:06:02;102689.66;;;12.42;63.58
64388;BME280;50709;52.648;4.764;2024-03-07T07:08:27;102687.75;;;12.35;62.45
64388;BME280;50709;52.648;4.764;2024-03-07T07:10:56;102692.38;;;11.77;63.13
64388;BME280;50709;52.648;4.764;2024-03-07T07:13:22;102693.50;;;12.20;63.66
64388;BME280;50709;52.648;4.764;2024-03-07T07:15:48;102690.75;;;11.20;66.56
64388;BME280;50709;52.648;4.764;2024-03-07T07:18:14;102695.28;;;11.88;67.71
64388;BME280;50709;52.648;4.764;2024-03-07T07:20:39;102694.31;;;11.54;65.48
64388;BME280;50709;52.648;4.764;2024-03-07T07:23:05;102703.28;;;11.01;64.80
64388;BME280;50709;52.648;4.764;2024-03-07T07:25:30;102693.06;;;12.38;64.93
64388;BME280;50709;52.648;4.764;2024-03-07T07:27:56;102695.44;;;11.62;63.33
64388;BME280;50709;52.648;4.764;2024-03-07T07:30:22;102687.69;;;11.65;63.57
64388;BME280;50709;52.648;4.764;2024-03-07T07:32:50;102699.44;;;11.81;64.04
64388;BME280;50709;52.648;4.764;2024-03-07T07:35:17;102697.16;;;11.61;63.81
64388;BME280;50709;52.648;4.764;2024-03-07T07:37:46;102701.88;;;12.05;63.46
64388;BME280;50709;52.648;4.764;2024-03-07T07:40:14;102694.78;;;12.36;63.30
64388;BME280;50709;52.648;4.764;2024-03-07T07:42:40;102688.50;;;12.66;63.50
64388;BME280;50709;52.648;4.764;2024-03-07T07:45:08;102683.16;;;12.26;60.97
64388;BME280;50709;52.648;4.764;2024-03-07T07:47:40;102687.53;;;11.92;65.78
64388;BME280;50709;52.648;4.764;2024-03-07T07:50:11;102693.75;;;12.30;64.86
64388;BME280;50709;52.648;4.764;2024-03-07T07:52:44;102676.44;;;11.07;62.72
64388;BME280;50709;52.648;4.764;2024-03-07T07:55:10;102686.03;;;12.37;61.24
64388;BME280;50709;52.648;4.764;2024-03-07T07:57:45;102687.38;;;12.20;62.80
64388;BME280;50709;52.648;4.764;2024-03-07T08:00:12;102686.06;;;12.39;61.02
64388;BME280;50709;52.648;4.764;2024-03-07T08:02:37;102687.44;;;11.89;62.49
64388;BME280;50709;52.648;4.764;2024-03-07T08:05:03;102687.28;;;12.17;63.26
64388;BME280;50709;52.648;4.764;2024-03-07T08:07:31;102698.72;;;11.23;60.64
64388;BME280;50709;52.648;4.764;2024-03-07T08:09:56;102688.00;;;11.45;62.71
64388;BME280;50709;52.648;4.764;2024-03-07T08:12:21;102681.28;;;12.21;61.28
64388;BME280;50709;52.648;4.764;2024-03-07T08:17:58;102686.91;;;12.74;60.91
64388;BME280;50709;52.648;4.764;2024-03-07T08:20:25;102682.03;;;12.52;59.35
64388;BME280;50709;52.648;4.764;2024-03-07T08:22:52;102675.59;;;12.39;64.25
64388;BME280;50709;52.648;4.764;2024-03-07T08:25:21;102683.94;;;13.40;59.61
64388;BME280;50709;52.648;4.764;2024-03-07T08:27:49;102676.28;;;13.51;61.18
64388;BME280;50709;52.648;4.764;2024-03-07T08:30:15;102701.00;;;11.42;61.65
64388;BME280;50709;52.648;4.764;2024-03-07T08:32:43;102687.03;;;13.20;63.18
64388;BME280;50709;52.648;4.764;2024-03-07T08:35:09;102684.09;;;13.06;63.56
64388;BME280;50709;52.648;4.764;2024-03-07T08:37:45;102686.63;;;13.02;61.83
64388;BME280;50709;52.648;4.764;2024-03-07T08:40:12;102675.03;;;13.33;61.69
64388;BME280;50709;52.648;4.764;2024-03-07T08:42:45;102680.41;;;12.96;62.55
64388;BME280;50709;52.648;4.764;2024-03-07T08:45:11;102686.56;;;12.59;66.39
64388;BME280;50709;52.648;4.764;2024-03-07T08:47:37;102683.63;;;12.45;66.71
64388;BME280;50709;52.648;4.764;2024-03-07T08:50:04;102680.53;;;13.44;65.68
64388;BME280;50709;52.648;4.764;2024-03-07T08:52:36;102683.72;;;13.30;67.92
64388;BME280;50709;52.648;4.764;2024-03-07T08:55:03;102640.09;;;12.14;59.11
64388;BME280;50709;52.648;4.764;2024-03-07T08:57:29;102690.47;;;11.39;61.84
64388;BME280;50709;52.648;4.764;2024-03-07T08:59:55;102661.38;;;11.94;64.59
64388;BME280;50709;52.648;4.764;2024-03-07T09:02:21;102682.59;;;11.71;61.88
64388;BME280;50709;52.648;4.764;2024-03-07T09:04:46;102675.34;;;12.28;63.04
64388;BME280;50709;52.648;4.764;2024-03-07T09:07:12;102663.09;;;11.92;66.20
64388;BME280;50709;52.648;4.764;2024-03-07T09:09:40;102678.75;;;11.57;64.98
64388;BME280;50709;52.648;4.764;2024-03-07T09:12:07;102679.72;;;11.00;67.36
64388;BME280;50709;52.648;4.764;2024-03-07T09:14:32;102672.41;;;12.16;64.00
64388;BME280;50709;52.648;4.764;2024-03-07T09:16:57;102673.94;;;12.06;62.97
64388;BME280;50709;52.648;4.764;2024-03-07T09:19:23;102675.53;;;11.06;62.70
64388;BME280;50709;52.648;4.764;2024-03-07T09:21:53;102637.03;;;11.01;66.07
64388;BME280;50709;52.648;4.764;2024-03-07T09:24:19;102675.22;;;11.24;63.66
64388;BME280;50709;52.648;4.764;2024-03-07T09:26:50;102671.75;;;11.57;65.80
64388;BME280;50709;52.648;4.764;2024-03-07T09:29:17;102670.09;;;12.28;67.64
64388;BME280;50709;52.648;4.764;2024-03-07T09:31:44;102657.94;;;11.95;63.23
64388;BME280;50709;52.648;4.764;2024-03-07T09:34:09;102663.88;;;11.25;61.53
64388;BME280;50709;52.648;4.764;2024-03-07T09:36:35;102654.00;;;11.79;63.85
64388;BME280;50709;52.648;4.764;2024-03-07T09:39:00;102666.00;;;11.71;63.89
64388;BME280;50709;52.648;4.764;2024-03-07T09:41:26;102654.66;;;10.77;62.35
64388;BME280;50709;52.648;4.764;2024-03-07T09:43:52;102651.00;;;11.32;64.35
64388;BME280;50709;52.648;4.764;2024-03-07T09:46:24;102655.44;;;11.66;63.62
64388;BME280;50709;52.648;4.764;2024-03-07T09:48:50;102640.78;;;11.73;61.95
64388;BME280;50709;52.648;4.764;2024-03-07T09:51:23;102639.69;;;11.98;63.17
64388;BME280;50709;52.648;4.764;2024-03-07T09:53:53;102646.72;;;12.01;64.38
64388;BME280;50709;52.648;4.764;2024-03-07T09:56:21;102641.78;;;10.84;60.40
64388;BME280;50709;52.648;4.764;2024-03-07T09:58:51;102642.50;;;11.72;64.71
64388;BME280;50709;52.648;4.764;2024-03-07T10:01:25;102640.22;;;12.20;64.65
64388;BME280;50709;52.648;4.764;2024-03-07T10:03:56;102650.91;;;11.28;63.85
64388;BME280;50709;52.648;4.764;2024-03-07T10:06:23;102634.59;;;11.71;63.04
64388;BME280;50709;52.648;4.764;2024-03-07T10:08:50;102630.41;;;10.53;59.45
64388;BME280;50709;52.648;4.764;2024-03-07T10:11:16;102643.66;;;10.88;60.48
64388;BME280;50709;52.648;4.764;2024-03-07T10:13:41;102632.44;;;10.63;59.06
64388;BME280;50709;52.648;4.764;2024-03-07T10:16:07;102634.31;;;11.60;61.54
64388;BME280;50709;52.648;4.764;2024-03-07T10:18:41;102643.81;;;11.56;58.95
64388;BME280;50709;52.648;4.764;2024-03-07T10:21:07;102634.69;;;10.51;58.23
64388;BME280;50709;52.648;4.764;2024-03-07T10:23:32;102635.78;;;10.32;58.44
64388;BME280;50709;52.648;4.764;2024-03-07T10:25:59;102632.50;;;10.93;60.30
64388;BME280;50709;52.648;4.764;2024-03-07T10:28:29;102636.31;;;11.06;59.25
64388;BME280;50709;52.648;4.764;2024-03-07T10:30:56;102620.69;;;10.77;58.40
64388;BME280;50709;52.648;4.764;2024-03-07T10:33:26;102630.41;;;10.53;61.00
64388;BME280;50709;52.648;4.764;2024-03-07T10:35:52;102639.50;;;10.94;59.94
64388;BME280;50709;52.648;4.764;2024-03-07T10:38:18;102623.34;;;10.79;57.50
64388;BME280;50709;52.648;4.764;2024-03-07T10:40:52;102619.69;;;10.74;58.20
64388;BME280;50709;52.648;4.764;2024-03-07T10:43:20;102629.38;;;11.07;56.49
64388;BME280;50709;52.648;4.764;2024-03-07T10:45:48;102615.66;;;10.84;57.83
64388;BME280;50709;52.648;4.764;2024-03-07T10:48:17;102610.78;;;10.67;56.38
64388;BME280;50709;52.648;4.764;2024-03-07T11:01:20;102606.03;;;10.83;55.74
64388;BME280;50709;52.648;4.764;2024-03-07T11:03:49;102611.88;;;10.45;54.17
64388;BME280;50709;52.648;4.764;2024-03-07T11:06:17;102597.47;;;10.88;56.51
64388;BME280;50709;52.648;4.764;2024-03-07T11:08:43;102610.66;;;11.23;56.05
64388;BME280;50709;52.648;4.764;2024-03-07T11:11:11;102608.13;;;10.66;56.65
64388;BME280;50709;52.648;4.764;2024-03-07T11:13:38;102595.66;;;10.86;53.92
64388;BME280;50709;52.648;4.764;2024-03-07T11:16:05;102594.25;;;10.67;53.72
64388;BME280;50709;52.648;4.764;2024-03-07T11:18:31;102584.88;;;10.75;54.54
64388;BME280;50709;52.648;4.764;2024-03-07T11:20:56;102592.28;;;10.59;54.00
64388;BME280;50709;52.648;4.764;2024-03-07T11:23:32;102590.03;;;11.02;55.50
64388;BME280;50709;52.648;4.764;2024-03-07T11:26:05;102569.88;;;11.64;55.67
64388;BME280;50709;52.648;4.764;2024-03-07T11:28:35;102586.66;;;11.06;53.71
64388;BME280;50709;52.648;4.764;2024-03-07T11:31:26;102555.47;;;11.46;55.48
64388;BME280;50709;52.648;4.764;2024-03-07T11:34:12;102581.97;;;11.60;54.44
64388;BME280;50709;52.648;4.764;2024-03-07T11:36:47;102578.50;;;10.96;55.97
64388;BME280;50709;52.648;4.764;2024-03-07T11:42:07;102582.50;;;11.15;56.56
64388;BME280;50709;52.648;4.764;2024-03-07T11:44:32;102581.59;;;11.13;56.36
64388;BME280;50709;52.648;4.764;2024-03-07T11:47:01;102566.22;;;11.23;58.37
64388;BME280;50709;52.648;4.764;2024-03-07T11:49:35;102563.38;;;11.16;55.95
64388;BME280;50709;52.648;4.764;2024-03-07T11:52:01;102580.81;;;10.85;55.37
64388;BME280;50709;52.648;4.764;2024-03-07T11:54:37;102549.94;;;11.02;55.76
64388;BME280;50709;52.648;4.764;2024-03-07T11:57:06;102574.97;;;10.93;56.43
64388;BME280;50709;52.648;4.764;2024-03-07T11:59:39;102563.44;;;10.56;56.63
64388;BME280;50709;52.648;4.764;2024-03-07T12:02:05;102552.00;;;11.14;56.69
64388;BME280;50709;52.648;4.764;2024-03-07T12:04:31;102550.13;;;10.77;55.97
64388;BME280;50709;52.648;4.764;2024-03-07T12:07:00;102556.97;;;10.74;56.86
64388;BME280;50709;52.648;4.764;2024-03-07T12:09:25;102535.63;;;11.21;58.79
64388;BME280;50709;52.648;4.764;2024-03-07T12:11:51;102540.56;;;11.78;60.42
64388;BME280;50709;52.648;4.764;2024-03-07T12:14:20;102526.69;;;10.81;56.49
64388;BME280;50709;52.648;4.764;2024-03-07T12:16:46;102494.56;;;11.18;58.57
64388;BME280;50709;52.648;4.764;2024-03-07T12:19:12;102483.88;;;11.44;58.22
64388;BME280;50709;52.648;4.764;2024-03-07T12:21:42;102512.38;;;11.32;56.73
64388;BME280;50709;52.648;4.764;2024-03-07T12:24:12;102508.13;;;11.03;56.32
64388;BME280;50709;52.648;4.764;2024-03-07T12:26:38;102509.59;;;11.60;56.86
64388;BME280;50709;52.648;4.764;2024-03-07T12:29:10;102505.78;;;10.81;54.58
64388;BME280;50709;52.648;4.764;2024-03-07T12:31:41;102489.53;;;11.24;58.32
64388;BME280;50709;52.648;4.764;2024-03-07T12:34:08;102503.41;;;11.22;55.51
64388;BME280;50709;52.648;4.764;2024-03-07T12:36:36;102497.41;;;11.26;55.39
64388;BME280;50709;52.648;4.764;2024-03-07T12:41:50;102468.50;;;11.56;58.81
64388;BME280;50709;52.648;4.764;2024-03-07T12:44:19;102474.38;;;11.46;56.09
64388;BME280;50709;52.648;4.764;2024-03-07T12:46:48;102476.19;;;11.49;56.46
64388;BME280;50709;52.648;4.764;2024-03-07T12:49:16;102473.53;;;11.12;56.76
64388;BME280;50709;52.648;4.764;2024-03-07T12:51:42;102427.13;;;11.40;57.20
64388;BME280;50709;52.648;4.764;2024-03-07T12:54:08;102470.78;;;11.42;58.32
64388;BME280;50709;52.648;4.764;2024-03-07T12:56:38;102463.41;;;11.26;57.25
64388;BME280;50709;52.648;4.764;2024-03-07T12:59:04;102463.94;;;10.81;57.03
64388;BME280;50709;52.648;4.764;2024-03-07T13:01:30;102472.88;;;10.89;57.02
64388;BME280;50709;52.648;4.764;2024-03-07T13:03:58;102448.97;;;11.07;56.55
64388;BME280;50709;52.648;4.764;2024-03-07T13:06:24;102434.31;;;11.87;58.26
64388;BME280;50709;52.648;4.764;2024-03-07T13:08:55;102467.53;;;11.51;58.46
64388;BME280;50709;52.648;4.764;2024-03-07T13:11:24;102443.44;;;10.94;57.09
64388;BME280;50709;52.648;4.764;2024-03-07T13:13:53;102446.72;;;10.87;58.02
64388;BME280;50709;52.648;4.764;2024-03-07T13:16:18;102447.22;;;11.42;58.72